sensor_id;sensor_type;location;lat;lon;timestamp;P1;durP1;ratioP1;P2;durP2;ratioP2
2760;SDS011;15420;48.636;9.798;2023-03-01T00:01:08;15.93;;;9.53;;
2760;SDS011;15420;48.636;9.798;2023-03-01T00:03:36;16.40;;;10.60;;
2760;SDS011;15420;48.636;9.798;2023-03-01T00:06:03;18.70;;;10.70;;
2760;SDS011;15420;48.636;9.798;2023-03-01T00:08:30;16.77;;;10.10;;
2760;SDS011;15420;48.636;9.798;2023-03-01T00:13:30;18.60;;;10.30;;
2760;SDS011;15420;48.636;9.798;2023-03-01T00:15:56;26.40;;;13.10;;
2760;SDS011;15420;48.636;9.798;2023-03-01T00:18:24;25.10;;;12.40;;
2760;SDS011;15420;48.636;9.798;2023-03-01T00:20:51;18.57;;;11.57;;
2760;SDS011;15420;48.636;9.798;2023-03-01T00:23:23;19.53;;;11.70;;
2760;SDS011;15420;48.636;9.798;2023-03-01T00:25:51;20.40;;;11.17;;
2760;SDS011;15420;48.636;9.798;2023-03-01T00:28:18;17.87;;;11.07;;
2760;SDS011;15420;48.636;9.798;2023-03-01T00:30:45;16.20;;;10.47;;
2760;SDS011;15420;48.636;9.798;2023-03-01T00:33:12;21.23;;;11.50;;
2760;SDS011;15420;48.636;9.798;2023-03-01T00:35:40;16.53;;;10.10;;
2760;SDS011;15420;48.636;9.798;2023-03-01T00:38:07;19.73;;;10.30;;
2760;SDS011;15420;48.636;9.798;2023-03-01T00:40:34;18.67;;;9.73;;
2760;SDS011;15420;48.636;9.798;2023-03-01T00:43:01;22.20;;;11.23;;
2760;SDS011;15420;48.636;9.798;2023-03-01T00:45:28;20.77;;;10.90;;
2760;SDS011;15420;48.636;9.798;2023-03-01T00:47:58;15.97;;;10.30;;
2760;SDS011;15420;48.636;9.798;2023-03-01T00:50:27;16.27;;;10.30;;
2760;SDS011;15420;48.636;9.798;2023-03-01T00:52:55;17.37;;;10.00;;
2760;SDS011;15420;48.636;9.798;2023-03-01T00:55:22;16.37;;;10.20;;
2760;SDS011;15420;48.636;9.798;2023-03-01T00:57:48;19.37;;;9.90;;
2760;SDS011;15420;48.636;9.798;2023-03-01T01:00:17;17.40;;;10.60;;
2760;SDS011;15420;48.636;9.798;2023-03-01T01:02:46;15.83;;;9.70;;
2760;SDS011;15420;48.636;9.798;2023-03-01T01:05:13;18.00;;;10.43;;
2760;SDS011;15420;48.636;9.798;2023-03-01T01:07:39;18.10;;;10.40;;
2760;SDS011;15420;48.636;9.798;2023-03-01T01:10:05;17.50;;;10.57;;
2760;SDS011;15420;48.636;9.798;2023-03-01T01:12:32;19.40;;;10.20;;
2760;SDS011;15420;48.636;9.798;2023-03-01T01:14:58;23.07;;;10.77;;
2760;SDS011;15420;48.636;9.798;2023-03-01T01:17:26;21.33;;;12.80;;
2760;SDS011;15420;48.636;9.798;2023-03-01T01:19:55;19.23;;;11.47;;
2760;SDS011;15420;48.636;9.798;2023-03-01T01:22:21;17.73;;;11.57;;
2760;SDS011;15420;48.636;9.798;2023-03-01T01:24:50;25.00;;;11.50;;
2760;SDS011;15420;48.636;9.798;2023-03-01T01:27:18;19.57;;;11.40;;
2760;SDS011;15420;48.636;9.798;2023-03-01T01:29:46;21.70;;;12.40;;
2760;SDS011;15420;48.636;9.798;2023-03-01T01:32:13;24.53;;;11.97;;
2760;SDS011;15420;48.636;9.798;2023-03-01T01:34:41;20.83;;;11.47;;
2760;SDS011;15420;48.636;9.798;2023-03-01T01:37:07;20.20;;;12.23;;
2760;SDS011;15420;48.636;9.798;2023-03-01T01:39:36;20.30;;;11.80;;
2760;SDS011;15420;48.636;9.798;2023-03-01T01:42:02;21.20;;;11.80;;
2760;SDS011;15420;48.636;9.798;2023-03-01T01:44:33;24.00;;;12.20;;
2760;SDS011;15420;48.636;9.798;2023-03-01T01:47:02;19.33;;;11.83;;
2760;SDS011;15420;48.636;9.798;2023-03-01T01:49:40;21.90;;;13.30;;
2760;SDS011;15420;48.636;9.798;2023-03-01T01:57:47;26.90;;;13.10;;
2760;SDS011;15420;48.636;9.798;2023-03-01T02:00:18;25.53;;;13.83;;
2760;SDS011;15420;48.636;9.798;2023-03-01T02:03:03;29.10;;;16.30;;
2760;SDS011;15420;48.636;9.798;2023-03-01T02:05:43;36.23;;;16.73;;
2760;SDS011;15420;48.636;9.798;2023-03-01T02:08:15;32.60;;;17.20;;
2760;SDS011;15420;48.636;9.798;2023-03-01T02:10:44;27.13;;;13.00;;
2760;SDS011;15420;48.636;9.798;2023-03-01T02:13:13;25.77;;;13.50;;
2760;SDS011;15420;48.636;9.798;2023-03-01T02:15:42;22.97;;;13.33;;
2760;SDS011;15420;48.636;9.798;2023-03-01T02:18:12;24.43;;;12.87;;
2760;SDS011;15420;48.636;9.798;2023-03-01T02:23:35;18.00;;;11.50;;
2760;SDS011;15420;48.636;9.798;2023-03-01T02:26:04;17.00;;;11.47;;
2760;SDS011;15420;48.636;9.798;2023-03-01T02:28:40;20.20;;;11.73;;
2760;SDS011;15420;48.636;9.798;2023-03-01T02:31:11;21.57;;;12.20;;
2760;SDS011;15420;48.636;9.798;2023-03-01T02:34:02;19.67;;;11.60;;
2760;SDS011;15420;48.636;9.798;2023-03-01T02:36:34;19.57;;;11.93;;
2760;SDS011;15420;48.636;9.798;2023-03-01T02:39:03;20.10;;;11.37;;
2760;SDS011;15420;48.636;9.798;2023-03-01T02:41:33;21.90;;;11.17;;
2760;SDS011;15420;48.636;9.798;2023-03-01T02:44:02;24.03;;;13.43;;
2760;SDS011;15420;48.636;9.798;2023-03-01T02:46:30;23.10;;;12.33;;
2760;SDS011;15420;48.636;9.798;2023-03-01T02:48:57;23.27;;;12.40;;
2760;SDS011;15420;48.636;9.798;2023-03-01T02:54:13;24.00;;;12.07;;
2760;SDS011;15420;48.636;9.798;2023-03-01T02:56:41;16.30;;;11.20;;
2760;SDS011;15420;48.636;9.798;2023-03-01T02:59:11;18.17;;;10.83;;
2760;SDS011;15420;48.636;9.798;2023-03-01T03:01:40;18.17;;;11.40;;
2760;SDS011;15420;48.636;9.798;2023-03-01T03:04:13;20.43;;;11.33;;
2760;SDS011;15420;48.636;9.798;2023-03-01T03:06:42;20.27;;;11.90;;
2760;SDS011;15420;48.636;9.798;2023-03-01T03:09:12;23.20;;;11.93;;
2760;SDS011;15420;48.636;9.798;2023-03-01T03:11:39;22.13;;;12.67;;
2760;SDS011;15420;48.636;9.798;2023-03-01T03:14:12;18.93;;;12.10;;
2760;SDS011;15420;48.636;9.798;2023-03-01T03:16:41;25.90;;;12.70;;
2760;SDS011;15420;48.636;9.798;2023-03-01T03:19:13;20.90;;;11.47;;
2760;SDS011;15420;48.636;9.798;2023-03-01T03:21:42;20.63;;;11.80;;
2760;SDS011;15420;48.636;9.798;2023-03-01T03:24:14;25.67;;;12.43;;
2760;SDS011;15420;48.636;9.798;2023-03-01T03:26:40;18.80;;;12.00;;
2760;SDS011;15420;48.636;9.798;2023-03-01T03:29:09;26.07;;;13.50;;
2760;SDS011;15420;48.636;9.798;2023-03-01T03:31:35;24.30;;;13.17;;
2760;SDS011;15420;48.636;9.798;2023-03-01T03:34:01;26.40;;;14.23;;
2760;SDS011;15420;48.636;9.798;2023-03-01T03:36:27;26.10;;;14.20;;
2760;SDS011;15420;48.636;9.798;2023-03-01T03:38:58;29.63;;;15.33;;
2760;SDS011;15420;48.636;9.798;2023-03-01T03:41:24;19.77;;;12.37;;
2760;SDS011;15420;48.636;9.798;2023-03-01T03:43:50;23.27;;;14.17;;
2760;SDS011;15420;48.636;9.798;2023-03-01T03:46:19;20.13;;;12.80;;
2760;SDS011;15420;48.636;9.798;2023-03-01T03:48:47;23.90;;;12.03;;
2760;SDS011;15420;48.636;9.798;2023-03-01T03:51:15;24.00;;;12.77;;
2760;SDS011;15420;48.636;9.798;2023-03-01T03:53:43;25.07;;;12.90;;
2760;SDS011;15420;48.636;9.798;2023-03-01T03:56:10;21.70;;;12.70;;
2760;SDS011;15420;48.636;9.798;2023-03-01T03:58:39;21.30;;;13.00;;
2760;SDS011;15420;48.636;9.798;2023-03-01T04:01:05;23.30;;;12.77;;
2760;SDS011;15420;48.636;9.798;2023-03-01T04:03:32;21.60;;;12.37;;
2760;SDS011;15420;48.636;9.798;2023-03-01T04:06:00;21.03;;;12.17;;
2760;SDS011;15420;48.636;9.798;2023-03-01T04:08:29;23.27;;;12.30;;
2760;SDS011;15420;48.636;9.798;2023-03-01T04:10:59;19.20;;;13.60;;
2760;SDS011;15420;48.636;9.798;2023-03-01T04:13:47;27.00;;;14.03;;
2760;SDS011;15420;48.636;9.798;2023-03-01T04:16:14;22.80;;;12.03;;
2760;SDS011;15420;48.636;9.798;2023-03-01T04:18:40;20.60;;;11.27;;
2760;SDS011;15420;48.636;9.798;2023-03-01T04:21:08;20.77;;;12.63;;
2760;SDS011;15420;48.636;9.798;2023-03-01T04:23:36;21.83;;;12.73;;
2760;SDS011;15420;48.636;9.798;2023-03-01T04:26:02;19.50;;;12.10;;
2760;SDS011;15420;48.636;9.798;2023-03-01T04:28:41;24.87;;;12.60;;
2760;SDS011;15420;48.636;9.798;2023-03-01T04:31:13;20.63;;;11.83;;
2760;SDS011;15420;48.636;9.798;2023-03-01T04:33:43;20.43;;;11.93;;
2760;SDS011;15420;48.636;9.798;2023-03-01T04:36:11;25.80;;;12.83;;
2760;SDS011;15420;48.636;9.798;2023-03-01T04:38:39;24.20;;;12.10;;
2760;SDS011;15420;48.636;9.798;2023-03-01T04:41:07;21.37;;;12.80;;
2760;SDS011;15420;48.636;9.798;2023-03-01T04:43:37;22.50;;;12.73;;
2760;SDS011;15420;48.636;9.798;2023-03-01T04:46:04;23.90;;;15.33;;
2760;SDS011;15420;48.636;9.798;2023-03-01T04:48:39;25.53;;;14.17;;
2760;SDS011;15420;48.636;9.798;2023-03-01T04:51:07;22.93;;;13.23;;
2760;SDS011;15420;48.636;9.798;2023-03-01T04:53:34;19.67;;;11.90;;
2760;SDS011;15420;48.636;9.798;2023-03-01T04:56:03;21.70;;;13.20;;
2760;SDS011;15420;48.636;9.798;2023-03-01T04:58:33;22.00;;;12.87;;
2760;SDS011;15420;48.636;9.798;2023-03-01T05:00:59;23.40;;;13.60;;
2760;SDS011;15420;48.636;9.798;2023-03-01T05:03:25;25.23;;;14.70;;
2760;SDS011;15420;48.636;9.798;2023-03-01T05:05:53;22.70;;;13.70;;
2760;SDS011;15420;48.636;9.798;2023-03-01T05:08:24;22.97;;;12.57;;
2760;SDS011;15420;48.636;9.798;2023-03-01T05:10:52;21.33;;;13.40;;
2760;SDS011;15420;48.636;9.798;2023-03-01T05:13:20;24.40;;;13.43;;
2760;SDS011;15420;48.636;9.798;2023-03-01T05:15:53;27.97;;;14.60;;
2760;SDS011;15420;48.636;9.798;2023-03-01T05:18:21;23.33;;;14.50;;
2760;SDS011;15420;48.636;9.798;2023-03-01T05:20:55;27.43;;;14.10;;
2760;SDS011;15420;48.636;9.798;2023-03-01T05:23:29;24.67;;;15.00;;
2760;SDS011;15420;48.636;9.798;2023-03-01T05:25:58;22.40;;;13.93;;
2760;SDS011;15420;48.636;9.798;2023-03-01T05:28:29;27.10;;;15.40;;
2760;SDS011;15420;48.636;9.798;2023-03-01T05:30:56;24.40;;;14.13;;
2760;SDS011;15420;48.636;9.798;2023-03-01T05:33:24;23.90;;;14.67;;
2760;SDS011;15420;48.636;9.798;2023-03-01T05:35:51;24.90;;;15.13;;
2760;SDS011;15420;48.636;9.798;2023-03-01T05:38:19;28.13;;;15.60;;
2760;SDS011;15420;48.636;9.798;2023-03-01T05:40:48;27.27;;;14.23;;
2760;SDS011;15420;48.636;9.798;2023-03-01T05:43:15;25.83;;;16.60;;
2760;SDS011;15420;48.636;9.798;2023-03-01T05:45:42;27.97;;;15.20;;
2760;SDS011;15420;48.636;9.798;2023-03-01T05:48:11;29.30;;;15.30;;
2760;SDS011;15420;48.636;9.798;2023-03-01T05:50:39;31.97;;;15.27;;
2760;SDS011;15420;48.636;9.798;2023-03-01T05:53:16;29.37;;;15.20;;
2760;SDS011;15420;48.636;9.798;2023-03-01T05:55:50;28.57;;;14.10;;
2760;SDS011;15420;48.636;9.798;2023-03-01T05:58:17;26.90;;;14.53;;
2760;SDS011;15420;48.636;9.798;2023-03-01T06:00:45;31.80;;;16.03;;
2760;SDS011;15420;48.636;9.798;2023-03-01T06:03:13;28.43;;;15.87;;
2760;SDS011;15420;48.636;9.798;2023-03-01T06:05:41;25.70;;;14.03;;
2760;SDS011;15420;48.636;9.798;2023-03-01T06:08:08;24.83;;;14.10;;
2760;SDS011;15420;48.636;9.798;2023-03-01T06:10:36;28.93;;;15.90;;
2760;SDS011;15420;48.636;9.798;2023-03-01T06:13:04;29.27;;;14.90;;
2760;SDS011;15420;48.636;9.798;2023-03-01T06:15:32;25.13;;;13.70;;
2760;SDS011;15420;48.636;9.798;2023-03-01T06:17:58;27.10;;;15.63;;
2760;SDS011;15420;48.636;9.798;2023-03-01T06:20:25;25.53;;;14.27;;
2760;SDS011;15420;48.636;9.798;2023-03-01T06:22:53;29.70;;;16.40;;
2760;SDS011;15420;48.636;9.798;2023-03-01T06:25:20;31.87;;;15.70;;
2760;SDS011;15420;48.636;9.798;2023-03-01T06:27:50;30.23;;;16.87;;
2760;SDS011;15420;48.636;9.798;2023-03-01T06:30:20;24.97;;;15.10;;
2760;SDS011;15420;48.636;9.798;2023-03-01T06:32:48;28.00;;;14.50;;
2760;SDS011;15420;48.636;9.798;2023-03-01T06:35:15;29.27;;;16.87;;
2760;SDS011;15420;48.636;9.798;2023-03-01T06:37:44;33.33;;;17.07;;
2760;SDS011;15420;48.636;9.798;2023-03-01T06:40:14;35.17;;;17.43;;
2760;SDS011;15420;48.636;9.798;2023-03-01T06:42:47;30.70;;;17.83;;
2760;SDS011;15420;48.636;9.798;2023-03-01T06:45:15;33.20;;;17.40;;
2760;SDS011;15420;48.636;9.798;2023-03-01T06:47:43;37.03;;;16.30;;
2760;SDS011;15420;48.636;9.798;2023-03-01T06:50:09;29.47;;;17.27;;
2760;SDS011;15420;48.636;9.798;2023-03-01T06:52:38;27.93;;;15.43;;
2760;SDS011;15420;48.636;9.798;2023-03-01T06:55:04;30.97;;;14.77;;
2760;SDS011;15420;48.636;9.798;2023-03-01T06:57:35;29.83;;;15.07;;
2760;SDS011;15420;48.636;9.798;2023-03-01T07:00:03;24.93;;;13.43;;
2760;SDS011;15420;48.636;9.798;2023-03-01T07:02:30;32.03;;;15.27;;
2760;SDS011;15420;48.636;9.798;2023-03-01T07:05:01;25.77;;;14.60;;
2760;SDS011;15420;48.636;9.798;2023-03-01T07:07:27;30.63;;;15.47;;
2760;SDS011;15420;48.636;9.798;2023-03-01T07:09:54;24.20;;;13.40;;
2760;SDS011;15420;48.636;9.798;2023-03-01T07:12:20;37.27;;;16.43;;
2760;SDS011;15420;48.636;9.798;2023-03-01T07:14:48;26.47;;;13.70;;
2760;SDS011;15420;48.636;9.798;2023-03-01T07:17:19;32.70;;;15.50;;
2760;SDS011;15420;48.636;9.798;2023-03-01T07:19:48;24.93;;;13.13;;
2760;SDS011;15420;48.636;9.798;2023-03-01T07:22:14;25.50;;;15.00;;
2760;SDS011;15420;48.636;9.798;2023-03-01T07:24:40;37.40;;;18.00;;
2760;SDS011;15420;48.636;9.798;2023-03-01T07:27:07;30.87;;;17.17;;
2760;SDS011;15420;48.636;9.798;2023-03-01T07:29:37;30.30;;;14.90;;
2760;SDS011;15420;48.636;9.798;2023-03-01T07:32:04;23.43;;;14.30;;
2760;SDS011;15420;48.636;9.798;2023-03-01T07:34:30;25.20;;;14.17;;
2760;SDS011;15420;48.636;9.798;2023-03-01T07:36:57;26.87;;;14.80;;
2760;SDS011;15420;48.636;9.798;2023-03-01T07:39:26;27.93;;;14.33;;
2760;SDS011;15420;48.636;9.798;2023-03-01T07:41:54;24.47;;;13.60;;
2760;SDS011;15420;48.636;9.798;2023-03-01T07:44:20;25.30;;;13.77;;
2760;SDS011;15420;48.636;9.798;2023-03-01T07:46:46;25.47;;;14.67;;
2760;SDS011;15420;48.636;9.798;2023-03-01T07:49:13;24.80;;;14.77;;
2760;SDS011;15420;48.636;9.798;2023-03-01T07:51:42;23.40;;;14.57;;
2760;SDS011;15420;48.636;9.798;2023-03-01T07:54:08;26.17;;;14.80;;
2760;SDS011;15420;48.636;9.798;2023-03-01T07:56:37;30.87;;;16.33;;
2760;SDS011;15420;48.636;9.798;2023-03-01T07:59:03;25.07;;;14.50;;
2760;SDS011;15420;48.636;9.798;2023-03-01T08:01:29;27.43;;;13.77;;
2760;SDS011;15420;48.636;9.798;2023-03-01T08:03:55;29.80;;;13.80;;
2760;SDS011;15420;48.636;9.798;2023-03-01T08:06:24;25.20;;;13.20;;
2760;SDS011;15420;48.636;9.798;2023-03-01T08:08:50;26.40;;;13.50;;
2760;SDS011;15420;48.636;9.798;2023-03-01T08:11:16;27.53;;;14.23;;
2760;SDS011;15420;48.636;9.798;2023-03-01T08:13:43;28.27;;;13.90;;
2760;SDS011;15420;48.636;9.798;2023-03-01T08:16:13;31.97;;;16.60;;
2760;SDS011;15420;48.636;9.798;2023-03-01T08:18:40;28.23;;;15.67;;
2760;SDS011;15420;48.636;9.798;2023-03-01T08:21:09;23.10;;;13.10;;
2760;SDS011;15420;48.636;9.798;2023-03-01T08:23:37;27.40;;;13.40;;
2760;SDS011;15420;48.636;9.798;2023-03-01T08:26:05;23.60;;;13.70;;
2760;SDS011;15420;48.636;9.798;2023-03-01T08:28:35;23.97;;;13.50;;
2760;SDS011;15420;48.636;9.798;2023-03-01T08:31:14;20.73;;;12.33;;
2760;SDS011;15420;48.636;9.798;2023-03-01T08:33:56;23.77;;;13.27;;
2760;SDS011;15420;48.636;9.798;2023-03-01T08:36:25;24.40;;;13.70;;
2760;SDS011;15420;48.636;9.798;2023-03-01T08:38:54;20.30;;;12.80;;
2760;SDS011;15420;48.636;9.798;2023-03-01T08:41:21;21.70;;;12.60;;
2760;SDS011;15420;48.636;9.798;2023-03-01T08:43:50;24.40;;;13.50;;
2760;SDS011;15420;48.636;9.798;2023-03-01T08:46:23;23.17;;;12.40;;
2760;SDS011;15420;48.636;9.798;2023-03-01T08:48:54;24.03;;;13.13;;
2760;SDS011;15420;48.636;9.798;2023-03-01T08:51:21;35.10;;;17.63;;
2760;SDS011;15420;48.636;9.798;2023-03-01T08:53:51;43.77;;;19.30;;
2760;SDS011;15420;48.636;9.798;2023-03-01T08:56:17;40.63;;;20.07;;
2760;SDS011;15420;48.636;9.798;2023-03-01T08:58:48;32.80;;;17.30;;
2760;SDS011;15420;48.636;9.798;2023-03-01T09:01:16;27.47;;;15.30;;
2760;SDS011;15420;48.636;9.798;2023-03-01T09:03:43;34.97;;;17.13;;
2760;SDS011;15420;48.636;9.798;2023-03-01T09:06:10;32.20;;;16.10;;
2760;SDS011;15420;48.636;9.798;2023-03-01T09:08:39;37.00;;;17.10;;
2760;SDS011;15420;48.636;9.798;2023-03-01T09:11:11;29.57;;;16.37;;
2760;SDS011;15420;48.636;9.798;2023-03-01T09:13:40;27.93;;;15.53;;
2760;SDS011;15420;48.636;9.798;2023-03-01T09:16:06;30.47;;;14.90;;
2760;SDS011;15420;48.636;9.798;2023-03-01T09:18:34;29.33;;;14.97;;
2760;SDS011;15420;48.636;9.798;2023-03-01T09:21:06;32.77;;;18.00;;
2760;SDS011;15420;48.636;9.798;2023-03-01T09:23:37;30.00;;;15.67;;
2760;SDS011;15420;48.636;9.798;2023-03-01T09:26:05;33.97;;;16.10;;
2760;SDS011;15420;48.636;9.798;2023-03-01T09:28:33;23.87;;;14.00;;
2760;SDS011;15420;48.636;9.798;2023-03-01T09:31:00;24.43;;;13.60;;
2760;SDS011;15420;48.636;9.798;2023-03-01T09:33:29;24.93;;;14.40;;
2760;SDS011;15420;48.636;9.798;2023-03-01T09:36:02;24.87;;;13.80;;
2760;SDS011;15420;48.636;9.798;2023-03-01T09:38:30;27.23;;;13.83;;
2760;SDS011;15420;48.636;9.798;2023-03-01T09:40:57;23.67;;;13.93;;
2760;SDS011;15420;48.636;9.798;2023-03-01T09:43:32;21.83;;;13.60;;
2760;SDS011;15420;48.636;9.798;2023-03-01T09:46:06;28.23;;;14.53;;
2760;SDS011;15420;48.636;9.798;2023-03-01T09:48:41;25.50;;;13.77;;
2760;SDS011;15420;48.636;9.798;2023-03-01T09:51:15;24.90;;;14.40;;
2760;SDS011;15420;48.636;9.798;2023-03-01T09:53:45;26.97;;;14.90;;
2760;SDS011;15420;48.636;9.798;2023-03-01T09:58:48;26.90;;;15.00;;
2760;SDS011;15420;48.636;9.798;2023-03-01T10:09:36;24.93;;;13.70;;
2760;SDS011;15420;48.636;9.798;2023-03-01T10:12:10;24.90;;;13.57;;
2760;SDS011;15420;48.636;9.798;2023-03-01T10:14:43;23.17;;;13.53;;
2760;SDS011;15420;48.636;9.798;2023-03-01T10:17:36;25.83;;;13.53;;
2760;SDS011;15420;48.636;9.798;2023-03-01T10:22:41;25.60;;;13.60;;
2760;SDS011;15420;48.636;9.798;2023-03-01T10:25:15;24.70;;;13.60;;
2760;SDS011;15420;48.636;9.798;2023-03-01T10:27:51;27.10;;;14.20;;
2760;SDS011;15420;48.636;9.798;2023-03-01T10:30:38;22.50;;;13.13;;
2760;SDS011;15420;48.636;9.798;2023-03-01T10:35:47;21.77;;;12.93;;
2760;SDS011;15420;48.636;9.798;2023-03-01T10:38:17;24.43;;;14.13;;
2760;SDS011;15420;48.636;9.798;2023-03-01T10:41:05;23.83;;;13.80;;
2760;SDS011;15420;48.636;9.798;2023-03-01T10:43:49;22.70;;;13.17;;
2760;SDS011;15420;48.636;9.798;2023-03-01T10:51:52;28.23;;;13.80;;
2760;SDS011;15420;48.636;9.798;2023-03-01T10:56:55;21.90;;;12.33;;
2760;SDS011;15420;48.636;9.798;2023-03-01T11:10:17;23.30;;;13.00;;
2760;SDS011;15420;48.636;9.798;2023-03-01T11:13:05;21.80;;;13.00;;
2760;SDS011;15420;48.636;9.798;2023-03-01T11:15:34;22.20;;;12.17;;
2760;SDS011;15420;48.636;9.798;2023-03-01T11:18:01;20.03;;;12.53;;
2760;SDS011;15420;48.636;9.798;2023-03-01T11:20:34;21.30;;;12.77;;
2760;SDS011;15420;48.636;9.798;2023-03-01T11:23:07;22.73;;;13.73;;
2760;SDS011;15420;48.636;9.798;2023-03-01T11:25:40;20.57;;;13.10;;
2760;SDS011;15420;48.636;9.798;2023-03-01T11:28:16;24.80;;;13.03;;
2760;SDS011;15420;48.636;9.798;2023-03-01T11:33:39;22.27;;;12.97;;
2760;SDS011;15420;48.636;9.798;2023-03-01T11:39:31;20.37;;;12.90;;
2760;SDS011;15420;48.636;9.798;2023-03-01T11:42:12;23.57;;;13.50;;
2760;SDS011;15420;48.636;9.798;2023-03-01T11:44:47;24.03;;;13.80;;
2760;SDS011;15420;48.636;9.798;2023-03-01T11:49:58;27.07;;;15.60;;
2760;SDS011;15420;48.636;9.798;2023-03-01T11:55:26;21.23;;;12.20;;
2760;SDS011;15420;48.636;9.798;2023-03-01T12:06:32;22.47;;;13.60;;
2760;SDS011;15420;48.636;9.798;2023-03-01T12:17:31;22.13;;;12.87;;
2760;SDS011;15420;48.636;9.798;2023-03-01T12:48:18;16.83;;;9.70;;
2760;SDS011;15420;48.636;9.798;2023-03-01T12:50:53;11.97;;;8.10;;
2760;SDS011;15420;48.636;9.798;2023-03-01T12:56:01;13.93;;;8.90;;
2760;SDS011;15420;48.636;9.798;2023-03-01T12:58:32;14.17;;;9.23;;
2760;SDS011;15420;48.636;9.798;2023-03-01T13:12:46;13.73;;;8.90;;
2760;SDS011;15420;48.636;9.798;2023-03-01T13:17:53;12.37;;;9.30;;
2760;SDS011;15420;48.636;9.798;2023-03-01T13:20:25;14.77;;;8.67;;
2760;SDS011;15420;48.636;9.798;2023-03-01T13:33:50;10.03;;;8.43;;
2760;SDS011;15420;48.636;9.798;2023-03-01T13:47:02;13.30;;;8.60;;
2760;SDS011;15420;48.636;9.798;2023-03-01T13:49:35;13.43;;;8.70;;
2760;SDS011;15420;48.636;9.798;2023-03-01T13:52:42;10.97;;;8.20;;
2760;SDS011;15420;48.636;9.798;2023-03-01T13:58:13;12.57;;;8.47;;
2760;SDS011;15420;48.636;9.798;2023-03-01T14:03:32;13.23;;;8.70;;
2760;SDS011;15420;48.636;9.798;2023-03-01T14:06:13;12.93;;;8.77;;
2760;SDS011;15420;48.636;9.798;2023-03-01T14:08:44;12.13;;;8.60;;
2760;SDS011;15420;48.636;9.798;2023-03-01T14:19:12;12.40;;;8.73;;
2760;SDS011;15420;48.636;9.798;2023-03-01T14:21:52;12.40;;;8.50;;
2760;SDS011;15420;48.636;9.798;2023-03-01T14:24:28;11.30;;;8.47;;
2760;SDS011;15420;48.636;9.798;2023-03-01T14:26:57;11.83;;;8.60;;
2760;SDS011;15420;48.636;9.798;2023-03-01T14:29:36;12.90;;;8.80;;
2760;SDS011;15420;48.636;9.798;2023-03-01T14:32:24;13.43;;;8.37;;
2760;SDS011;15420;48.636;9.798;2023-03-01T14:34:55;12.90;;;9.33;;
2760;SDS011;15420;48.636;9.798;2023-03-01T14:39:58;13.27;;;8.00;;
2760;SDS011;15420;48.636;9.798;2023-03-01T14:42:28;11.03;;;7.60;;
2760;SDS011;15420;48.636;9.798;2023-03-01T14:45:03;10.87;;;8.20;;
2760;SDS011;15420;48.636;9.798;2023-03-01T14:47:33;12.80;;;9.03;;
2760;SDS011;15420;48.636;9.798;2023-03-01T14:52:49;12.97;;;9.50;;
2760;SDS011;15420;48.636;9.798;2023-03-01T14:55:19;14.60;;;9.93;;
2760;SDS011;15420;48.636;9.798;2023-03-01T14:57:59;12.80;;;9.00;;
2760;SDS011;15420;48.636;9.798;2023-03-01T15:00:30;16.07;;;10.03;;
2760;SDS011;15420;48.636;9.798;2023-03-01T15:03:17;16.00;;;10.60;;
2760;SDS011;15420;48.636;9.798;2023-03-01T15:06:03;19.70;;;10.50;;
2760;SDS011;15420;48.636;9.798;2023-03-01T15:08:33;13.20;;;9.00;;
2760;SDS011;15420;48.636;9.798;2023-03-01T15:13:50;15.60;;;10.10;;
2760;SDS011;15420;48.636;9.798;2023-03-01T15:16:28;17.57;;;11.03;;
2760;SDS011;15420;48.636;9.798;2023-03-01T15:19:03;16.17;;;10.47;;
2760;SDS011;15420;48.636;9.798;2023-03-01T15:21:32;16.63;;;10.20;;
2760;SDS011;15420;48.636;9.798;2023-03-01T15:26:44;28.73;;;16.83;;
2760;SDS011;15420;48.636;9.798;2023-03-01T15:29:23;37.43;;;20.90;;
2760;SDS011;15420;48.636;9.798;2023-03-01T15:31:56;45.23;;;28.47;;
2760;SDS011;15420;48.636;9.798;2023-03-01T15:34:34;48.10;;;26.80;;
2760;SDS011;15420;48.636;9.798;2023-03-01T15:37:34;31.33;;;17.50;;
2760;SDS011;15420;48.636;9.798;2023-03-01T15:40:22;21.90;;;12.63;;
2760;SDS011;15420;48.636;9.798;2023-03-01T15:42:58;21.07;;;10.90;;
2760;SDS011;15420;48.636;9.798;2023-03-01T15:45:29;24.80;;;13.70;;
2760;SDS011;15420;48.636;9.798;2023-03-01T15:53:01;20.13;;;12.30;;
2760;SDS011;15420;48.636;9.798;2023-03-01T15:55:33;25.83;;;13.00;;
2760;SDS011;15420;48.636;9.798;2023-03-01T15:58:00;16.37;;;11.67;;
2760;SDS011;15420;48.636;9.798;2023-03-01T16:00:29;18.50;;;12.30;;
2760;SDS011;15420;48.636;9.798;2023-03-01T16:02:58;27.80;;;18.70;;
2760;SDS011;15420;48.636;9.798;2023-03-01T16:07:52;18.90;;;13.20;;
2760;SDS011;15420;48.636;9.798;2023-03-01T16:10:19;19.00;;;12.50;;
2760;SDS011;15420;48.636;9.798;2023-03-01T16:12:51;18.60;;;11.53;;
2760;SDS011;15420;48.636;9.798;2023-03-01T16:15:22;21.43;;;12.27;;
2760;SDS011;15420;48.636;9.798;2023-03-01T16:17:49;26.17;;;12.90;;
2760;SDS011;15420;48.636;9.798;2023-03-01T16:20:17;18.40;;;10.93;;
2760;SDS011;15420;48.636;9.798;2023-03-01T16:22:46;17.67;;;11.05;;
2760;SDS011;15420;48.636;9.798;2023-03-01T16:25:14;17.23;;;11.20;;
2760;SDS011;15420;48.636;9.798;2023-03-01T16:27:42;16.43;;;10.90;;
2760;SDS011;15420;48.636;9.798;2023-03-01T16:30:10;18.77;;;11.57;;
2760;SDS011;15420;48.636;9.798;2023-03-01T16:32:41;21.97;;;12.20;;
2760;SDS011;15420;48.636;9.798;2023-03-01T16:35:12;16.10;;;11.20;;
2760;SDS011;15420;48.636;9.798;2023-03-01T16:37:42;16.77;;;10.07;;
2760;SDS011;15420;48.636;9.798;2023-03-01T16:40:27;17.67;;;10.43;;
2760;SDS011;15420;48.636;9.798;2023-03-01T16:42:55;20.97;;;10.73;;
2760;SDS011;15420;48.636;9.798;2023-03-01T16:45:27;16.83;;;11.27;;
2760;SDS011;15420;48.636;9.798;2023-03-01T16:47:59;18.37;;;10.73;;
2760;SDS011;15420;48.636;9.798;2023-03-01T16:50:25;21.77;;;12.17;;
2760;SDS011;15420;48.636;9.798;2023-03-01T16:52:51;16.27;;;11.00;;
2760;SDS011;15420;48.636;9.798;2023-03-01T16:55:17;25.60;;;13.50;;
2760;SDS011;15420;48.636;9.798;2023-03-01T16:57:46;29.00;;;14.27;;
2760;SDS011;15420;48.636;9.798;2023-03-01T17:00:16;24.57;;;14.73;;
2760;SDS011;15420;48.636;9.798;2023-03-01T17:02:42;24.70;;;13.83;;
2760;SDS011;15420;48.636;9.798;2023-03-01T17:05:11;24.40;;;14.40;;
2760;SDS011;15420;48.636;9.798;2023-03-01T17:07:37;24.83;;;15.43;;
2760;SDS011;15420;48.636;9.798;2023-03-01T17:10:04;28.40;;;16.27;;
2760;SDS011;15420;48.636;9.798;2023-03-01T17:12:35;26.77;;;15.27;;
2760;SDS011;15420;48.636;9.798;2023-03-01T17:15:02;24.03;;;13.30;;
2760;SDS011;15420;48.636;9.798;2023-03-01T17:17:30;25.10;;;14.27;;
2760;SDS011;15420;48.636;9.798;2023-03-01T17:19:59;20.73;;;13.50;;
2760;SDS011;15420;48.636;9.798;2023-03-01T17:22:27;28.00;;;14.20;;
2760;SDS011;15420;48.636;9.798;2023-03-01T17:24:56;26.63;;;15.27;;
2760;SDS011;15420;48.636;9.798;2023-03-01T17:27:22;26.07;;;15.73;;
2760;SDS011;15420;48.636;9.798;2023-03-01T17:29:48;30.30;;;15.40;;
2760;SDS011;15420;48.636;9.798;2023-03-01T17:32:16;33.17;;;18.03;;
2760;SDS011;15420;48.636;9.798;2023-03-01T17:34:45;53.10;;;27.83;;
2760;SDS011;15420;48.636;9.798;2023-03-01T17:37:11;48.70;;;25.27;;
2760;SDS011;15420;48.636;9.798;2023-03-01T17:39:37;38.80;;;21.53;;
2760;SDS011;15420;48.636;9.798;2023-03-01T17:42:03;48.77;;;22.03;;
2760;SDS011;15420;48.636;9.798;2023-03-01T17:44:32;36.77;;;20.20;;
2760;SDS011;15420;48.636;9.798;2023-03-01T17:47:01;30.60;;;18.33;;
2760;SDS011;15420;48.636;9.798;2023-03-01T17:49:28;27.50;;;16.17;;